Jhelum, Pakistan

11:06 AM PKT on March 27, 2015 (GMT +0500)
Chacklala International | | Change Station
CLOSE
Current Station
Airport
Location: Islamabad,
Elevation: 1667 ft
Nearby Weather Stations

Elev 1667 ft 33.62 °N, 73.10 °E | Updated 6 minutes ago

Haze
Haze
81 °F
Feels Like 81 °F
N
5
Wind Variable Wind from SW

Today
High -- | Low -- °F
--% Chance of Precip.
Yesterday
High -- | Low -- °F
Precip. -- in
6:00 AM 6:21 PM
Waxing Crescent, 49% visible
Pressure 30.09 in
Visibility 2.5 miles
Clouds Few 10000 ft
Scattered Clouds 20000 ft
Heat Index 81 °F
Dew Point 57 °F
Humidity 45%
Rainfall 0.00 in
Snow Depth Not available.
UV 7 out of 12
Pollen Not available.
Air Quality Not available.
Flu Activity Not available.
METAR OPRN 270600Z 23004KT 4000 HZ FEW100 SCT200 27/14 Q1019.6/30.11

More Conditions Fewer Conditions

Pressure 30.09 in
Visibility 2.5 miles
Clouds Few 10000 ft
Scattered Clouds 20000 ft
Heat Index 81 °F
Dew Point 57 °F
Humidity 45%
Rainfall 0.00 in
Snow Depth Not available.
UV 7 out of 12
Pollen Not available.
Air Quality Not available.
Flu Activity Not available.
METAR OPRN 270600Z 23004KT 4000 HZ FEW100 SCT200 27/14 Q1019.6/30.11

More Conditions Fewer Conditions

10-Day Weather Forecast

Almanac

Astronomy

Mar. 27, 2015 Rise Set
Actual Time
Civil Twilight
Nautical Twilight
Astronomical Twilight
Moon
Length of Visible Light
Length of Day
Tomorrow will be .
, % of the Moon is Illuminated

Today's Extremes

Country Highs Country Lows

Community

WunderPhotos

Upload Photos

1,808,700 photos uploaded!

WunderBlogs® & News

Nearby

Air Quality

  Air Quality AQ Index Pollutant
Not available.

Snow Depth

Station Depth Elevation

Earthquake Activity

City Distance Mag. Time & Date
Minimum magnitude displayed is 2.5.

Coastal Water Temperatures

Place Temperature

Stations

Nearby Weather Stations

Station Location Temp. Windchill Dew Point Humidity Wind Precip. Elev Updated Type